Terminal Aerodrome Forecast
Issued by NWS Shreveport, LA

Home | Current Version | Previous Version | Text Only | Print | Product List | Glossary On
Versions: 1 2 3 4 5 6 7 8 9 10 11 12 13 14 15 16 17 18 19 20
000
FTUS44 KSHV 292337
TAFGGG
TAF
KGGG 292337Z 3000/3024 20012KT P6SM SCT040
     FM300100 20008KT P6SM FEW050 BKN250
     FM300800 23005KT P6SM VCTS BKN040CB
     FM301400 32008KT P6SM BKN050=

USA.gov is the U.S. government's official web portal to all federal, state and local government web resources and services.